createdAt,value
2016-06-23T00:00:14.042Z,23.4
2016-06-23T00:01:14.018Z,23.35
2016-06-23T00:02:14.008Z,23.35
2016-06-23T00:03:13.975Z,23.32
2016-06-23T00:04:13.977Z,23.29
2016-06-23T00:05:14.018Z,23.37
2016-06-23T00:06:13.981Z,23.29
2016-06-23T00:07:13.981Z,23.24
2016-06-23T00:08:14.073Z,23.34
2016-06-23T00:09:13.989Z,23.32
2016-06-23T00:10:14.025Z,23.25
2016-06-23T00:11:14.048Z,23.34
2016-06-23T00:12:14.063Z,23.32
2016-06-23T00:13:14.061Z,23.26
2016-06-23T00:14:14.057Z,23.29
2016-06-23T00:15:13.995Z,23.28
2016-06-23T00:16:14.013Z,23.32
2016-06-23T00:17:13.995Z,23.26
2016-06-23T00:18:14.023Z,23.26
2016-06-23T00:19:14.033Z,23.28
2016-06-23T00:20:14.038Z,23.26
2016-06-23T00:21:14.032Z,23.21
2016-06-23T00:22:14.046Z,23.18
2016-06-23T00:23:13.999Z,23.18
2016-06-23T00:24:14.047Z,23.15
2016-06-23T00:25:14.012Z,23.18
2016-06-23T00:26:14.039Z,23.14
2016-06-23T00:27:14.037Z,23.15
2016-06-23T00:28:14.023Z,23.12
2016-06-23T00:29:14.049Z,23.21
2016-06-23T00:30:14.019Z,23.14
2016-06-23T00:31:14.026Z,23.12
2016-06-23T00:32:14.072Z,23.09
2016-06-23T00:33:14.051Z,23.12
2016-06-23T00:34:14.057Z,23.16
2016-06-23T00:35:14.086Z,23.15
2016-06-23T00:36:14.057Z,23.15
2016-06-23T00:37:14.067Z,23.09
2016-06-23T00:38:14.054Z,23.15
2016-06-23T00:39:14.058Z,23.09
2016-06-23T00:40:14.052Z,23.1
2016-06-23T00:41:14.034Z,23.12
2016-06-23T00:42:14.065Z,23.16
2016-06-23T00:43:14.097Z,23.09
2016-06-23T00:44:14.099Z,23.15
2016-06-23T00:45:14.035Z,23.1
2016-06-23T00:46:14.109Z,23.06
2016-06-23T00:47:14.089Z,23.09
2016-06-23T00:48:14.071Z,23.06
2016-06-23T00:49:14.099Z,23.1
2016-06-23T00:50:14.085Z,23.07
2016-06-23T00:51:14.055Z,23.04
2016-06-23T00:52:14.109Z,23.04
2016-06-23T00:53:14.088Z,23.03
2016-06-23T00:54:14.083Z,23.07
2016-06-23T00:55:14.114Z,23.03
2016-06-23T00:56:14.099Z,23
2016-06-23T00:57:14.089Z,23.01
2016-06-23T00:58:14.058Z,23.01
2016-06-23T00:59:14.091Z,23
2016-06-23T01:00:14.102Z,22.99
2016-06-23T01:01:14.074Z,23.04
2016-06-23T01:02:14.124Z,23.07
2016-06-23T01:03:14.129Z,23.04
2016-06-23T01:04:14.086Z,23.01
2016-06-23T01:05:14.127Z,22.92
2016-06-23T01:06:14.072Z,23.03
2016-06-23T01:07:14.130Z,22.97
2016-06-23T01:08:14.299Z,22.88
2016-06-23T01:09:14.226Z,22.96
2016-06-23T01:10:14.113Z,22.92
2016-06-23T01:11:14.138Z,22.92
2016-06-23T01:12:14.278Z,22.96
2016-06-23T01:13:14.311Z,22.91
2016-06-23T01:14:14.113Z,22.92
2016-06-23T01:15:14.080Z,22.92
2016-06-23T01:16:14.126Z,22.85
2016-06-23T01:17:14.084Z,22.91
2016-06-23T01:18:14.123Z,22.86
2016-06-23T01:19:14.138Z,22.88
2016-06-23T01:20:14.116Z,22.89
2016-06-23T01:21:14.153Z,22.91
2016-06-23T01:22:14.151Z,22.89
2016-06-23T01:23:14.117Z,22.84
2016-06-23T01:24:14.143Z,22.82
2016-06-23T01:25:14.110Z,22.97
2016-06-23T01:26:14.154Z,22.99
2016-06-23T01:27:14.156Z,22.88
2016-06-23T01:28:14.095Z,22.84
2016-06-23T01:29:14.179Z,22.89
2016-06-23T01:30:14.165Z,22.82
2016-06-23T01:31:14.127Z,22.82
2016-06-23T01:32:14.132Z,22.82
2016-06-23T01:33:14.139Z,22.81
2016-06-23T01:34:14.169Z,22.96
2016-06-23T01:35:14.142Z,22.84
2016-06-23T01:36:14.141Z,22.76
2016-06-23T01:37:14.138Z,22.84
2016-06-23T01:38:14.110Z,22.76
2016-06-23T01:39:14.146Z,22.76
2016-06-23T01:40:14.149Z,22.73
2016-06-23T01:41:14.149Z,22.89
2016-06-23T01:42:14.146Z,22.76
2016-06-23T01:43:14.150Z,22.81
2016-06-23T01:44:14.128Z,22.86
2016-06-23T01:45:14.190Z,22.76
2016-06-23T01:46:14.169Z,22.75
2016-06-23T01:47:14.188Z,22.82
2016-06-23T01:48:14.161Z,22.84
2016-06-23T01:49:14.161Z,22.76
2016-06-23T01:50:14.158Z,22.82
2016-06-23T01:51:14.161Z,22.76
2016-06-23T01:52:14.194Z,22.75
2016-06-23T01:53:14.130Z,22.73
2016-06-23T01:54:14.204Z,22.67
2016-06-23T01:55:14.146Z,22.73
2016-06-23T01:56:14.195Z,22.7
2016-06-23T01:57:14.165Z,22.73
2016-06-23T01:58:14.143Z,22.7
2016-06-23T01:59:14.175Z,22.73
2016-06-23T02:00:14.173Z,22.78
2016-06-23T02:01:14.178Z,22.78
2016-06-23T02:02:14.175Z,22.61
2016-06-23T02:03:14.183Z,22.64
2016-06-23T02:04:14.162Z,22.69
2016-06-23T02:05:14.182Z,22.7
2016-06-23T02:06:14.163Z,22.64
2016-06-23T02:07:14.159Z,22.67
2016-06-23T02:08:14.163Z,22.64
2016-06-23T02:09:14.211Z,22.6
2016-06-23T02:10:14.183Z,22.63
2016-06-23T02:11:14.160Z,22.57
2016-06-23T02:12:14.199Z,22.66
2016-06-23T02:13:14.163Z,22.61
2016-06-23T02:14:14.166Z,22.6
2016-06-23T02:15:14.202Z,22.61
2016-06-23T02:16:14.210Z,22.59
2016-06-23T02:17:14.199Z,22.66
2016-06-23T02:18:14.207Z,22.66
2016-06-23T02:19:14.231Z,22.61
2016-06-23T02:20:14.212Z,22.59
2016-06-23T02:21:14.221Z,22.52
2016-06-23T02:22:14.221Z,22.51
2016-06-23T02:23:14.213Z,22.54
2016-06-23T02:24:14.213Z,22.51
2016-06-23T02:25:14.227Z,22.55
2016-06-23T02:26:14.253Z,22.49
2016-06-23T02:27:14.192Z,22.55
2016-06-23T02:28:14.209Z,22.54
2016-06-23T02:29:14.187Z,22.51
2016-06-23T02:30:14.217Z,22.49
2016-06-23T02:31:14.196Z,22.49
2016-06-23T02:32:14.226Z,22.54
2016-06-23T02:33:14.232Z,22.55
2016-06-23T02:34:14.221Z,22.51
2016-06-23T02:35:14.264Z,22.48
2016-06-23T02:36:14.258Z,22.51
2016-06-23T02:37:14.199Z,22.44
2016-06-23T02:38:14.233Z,22.49
2016-06-23T02:39:14.201Z,22.49
2016-06-23T02:40:14.263Z,22.49
2016-06-23T02:41:14.235Z,22.45
2016-06-23T02:42:14.232Z,22.46
2016-06-23T02:43:14.236Z,22.38
2016-06-23T02:44:14.267Z,22.41
2016-06-23T02:45:14.282Z,22.41
2016-06-23T02:46:14.207Z,22.42
2016-06-23T02:47:14.285Z,22.41
2016-06-23T02:48:14.215Z,22.39
2016-06-23T02:49:14.275Z,22.45
2016-06-23T02:50:14.255Z,22.44
2016-06-23T02:51:14.248Z,22.41
2016-06-23T02:52:14.242Z,22.39
2016-06-23T02:53:14.219Z,22.48
2016-06-23T02:54:14.258Z,22.45
2016-06-23T02:55:14.285Z,22.44
2016-06-23T02:56:14.258Z,22.41
2016-06-23T02:57:14.296Z,22.42
2016-06-23T02:58:14.254Z,22.39
2016-06-23T02:59:14.296Z,22.38
2016-06-23T03:00:14.242Z,22.38
2016-06-23T03:01:14.229Z,22.39
2016-06-23T03:02:14.275Z,22.38
2016-06-23T03:03:14.293Z,22.45
2016-06-23T03:04:14.266Z,22.39
2016-06-23T03:05:14.264Z,22.41
2016-06-23T03:06:14.282Z,22.41
2016-06-23T03:07:14.269Z,22.42
2016-06-23T03:08:14.316Z,22.42
2016-06-23T03:09:14.310Z,22.41
2016-06-23T03:10:14.278Z,22.41
2016-06-23T03:11:14.312Z,22.41
2016-06-23T03:12:14.274Z,22.34
2016-06-23T03:13:14.287Z,22.39
2016-06-23T03:14:14.259Z,22.41
2016-06-23T03:15:14.250Z,22.36
2016-06-23T03:16:14.290Z,22.46
2016-06-23T03:17:14.275Z,22.34
2016-06-23T03:18:14.282Z,22.39
2016-06-23T03:19:14.318Z,22.44
2016-06-23T03:20:14.263Z,22.31
2016-06-23T03:21:14.283Z,22.45
2016-06-23T03:22:14.298Z,22.41
2016-06-23T03:23:14.303Z,22.44
2016-06-23T03:24:14.331Z,22.3
2016-06-23T03:25:14.302Z,22.27
2016-06-23T03:26:14.302Z,22.44
2016-06-23T03:27:14.303Z,22.36
2016-06-23T03:40:15.286Z,22.31
2016-06-23T03:40:22.154Z,22.31
2016-06-23T03:41:22.163Z,22.24
2016-06-23T03:42:22.187Z,22.27
2016-06-23T03:43:22.221Z,22.29
2016-06-23T03:44:22.186Z,22.38
2016-06-23T03:45:22.199Z,22.33
2016-06-23T03:46:22.177Z,22.42
2016-06-23T03:47:22.199Z,22.41
2016-06-23T03:48:22.194Z,22.38
2016-06-23T03:49:22.170Z,22.31
2016-06-23T03:50:22.219Z,22.41
2016-06-23T03:51:22.211Z,22.36
2016-06-23T03:52:22.251Z,22.44
2016-06-23T03:53:22.210Z,22.48
2016-06-23T03:54:22.201Z,22.29
2016-06-23T03:55:22.174Z,22.39
2016-06-23T03:56:22.210Z,22.36
2016-06-23T03:57:22.181Z,22.33
2016-06-23T03:58:22.193Z,22.31
2016-06-23T03:59:22.185Z,22.44
2016-06-23T04:00:22.250Z,22.41
2016-06-23T04:01:22.256Z,22.39
2016-06-23T04:02:22.216Z,22.34
2016-06-23T04:03:22.257Z,22.41
2016-06-23T04:04:22.219Z,22.38
2016-06-23T04:05:22.221Z,22.42
2016-06-23T04:06:22.229Z,22.38
2016-06-23T04:07:22.253Z,22.44
2016-06-23T04:08:22.231Z,22.39
2016-06-23T04:09:22.231Z,22.46
2016-06-23T04:10:22.226Z,22.41
2016-06-23T04:11:22.263Z,22.48
2016-06-23T04:12:22.234Z,22.45
2016-06-23T04:13:22.263Z,22.48
2016-06-23T04:14:22.269Z,22.46
2016-06-23T04:15:22.262Z,22.49
2016-06-23T04:16:22.264Z,22.55
2016-06-23T04:17:22.239Z,22.52
2016-06-23T04:18:22.207Z,22.48
2016-06-23T04:19:22.206Z,22.52
2016-06-23T04:20:22.259Z,22.52
2016-06-23T04:21:22.235Z,22.55
2016-06-23T04:22:22.250Z,22.55
2016-06-23T04:23:22.257Z,22.51
2016-06-23T04:24:22.231Z,22.61
2016-06-23T04:25:22.233Z,22.51
2016-06-23T04:26:22.213Z,22.64
2016-06-23T04:27:22.262Z,22.66
2016-06-23T04:28:22.251Z,22.57
2016-06-23T04:29:22.234Z,22.57
2016-06-23T04:30:22.223Z,22.59
2016-06-23T04:31:22.258Z,22.59
2016-06-23T04:32:22.287Z,22.57
2016-06-23T04:33:22.287Z,22.66
2016-06-23T04:34:22.262Z,22.64
2016-06-23T04:35:22.230Z,22.61
2016-06-23T04:36:22.267Z,22.7
2016-06-23T04:37:22.285Z,22.67
2016-06-23T04:38:22.253Z,22.66
2016-06-23T04:39:22.249Z,22.63
2016-06-23T04:40:22.267Z,22.63
2016-06-23T04:41:22.310Z,22.66
2016-06-23T04:42:22.273Z,22.67
2016-06-23T04:43:22.265Z,22.69
2016-06-23T04:44:22.249Z,22.64
2016-06-23T04:45:22.306Z,22.64
2016-06-23T04:46:22.244Z,22.64
2016-06-23T04:47:22.277Z,22.73
2016-06-23T04:48:22.346Z,22.61
2016-06-23T04:49:22.317Z,22.64
2016-06-23T04:50:22.256Z,22.61
2016-06-23T04:51:22.283Z,22.69
2016-06-23T04:52:22.253Z,22.73
2016-06-23T04:53:22.294Z,22.66
2016-06-23T04:54:22.286Z,22.67
2016-06-23T04:55:22.301Z,22.69
2016-06-23T04:56:22.311Z,22.69
2016-06-23T04:57:22.328Z,22.69
2016-06-23T04:58:22.304Z,22.61
2016-06-23T04:59:22.261Z,22.64
2016-06-23T05:00:22.299Z,22.69
2016-06-23T05:01:22.327Z,22.7
2016-06-23T05:02:22.315Z,22.6
2016-06-23T05:03:22.273Z,22.6
2016-06-23T05:04:22.339Z,22.67
2016-06-23T05:05:22.306Z,22.64
2016-06-23T05:06:22.314Z,22.67
2016-06-23T05:07:22.317Z,22.64
2016-06-23T05:08:22.334Z,22.59
2016-06-23T05:09:22.352Z,22.61
2016-06-23T05:10:22.277Z,22.64
2016-06-23T05:11:22.319Z,22.55
2016-06-23T05:12:22.347Z,22.63
2016-06-23T05:13:22.288Z,22.6
2016-06-23T05:14:22.287Z,22.59
2016-06-23T05:15:22.290Z,22.59
2016-06-23T05:16:22.339Z,22.63
2016-06-23T05:17:22.285Z,22.66
2016-06-23T05:18:22.299Z,22.6
2016-06-23T05:19:22.293Z,22.64
2016-06-23T05:20:22.351Z,22.6
2016-06-23T05:21:22.306Z,22.61
2016-06-23T05:22:22.336Z,22.7
2016-06-23T05:23:22.310Z,22.67
2016-06-23T05:24:22.312Z,22.6
2016-06-23T05:25:22.314Z,22.61
2016-06-23T05:26:22.370Z,22.64
2016-06-23T05:27:22.354Z,22.55
2016-06-23T05:28:22.343Z,22.63
2016-06-23T05:29:22.372Z,22.66
2016-06-23T05:30:22.346Z,22.67
2016-06-23T05:31:22.314Z,22.63
2016-06-23T05:32:22.313Z,22.63
2016-06-23T05:33:22.418Z,22.7
2016-06-23T05:34:22.386Z,22.69
2016-06-23T05:35:22.358Z,22.7
2016-06-23T05:36:22.352Z,22.66
2016-06-23T05:37:22.354Z,22.63
2016-06-23T05:38:22.328Z,22.6
2016-06-23T05:39:22.390Z,22.69
2016-06-23T05:40:22.369Z,22.71
2016-06-23T05:41:22.364Z,22.7
2016-06-23T05:42:22.366Z,22.67
2016-06-23T05:43:22.381Z,22.67
2016-06-23T05:44:22.361Z,22.66
2016-06-23T05:45:22.378Z,22.64
2016-06-23T05:46:22.364Z,22.73
2016-06-23T05:47:22.373Z,22.75
2016-06-23T05:48:22.350Z,22.67
2016-06-23T05:49:22.410Z,22.61
2016-06-23T05:50:22.353Z,22.73
2016-06-23T05:51:22.367Z,22.66
2016-06-23T05:52:22.384Z,22.7
2016-06-23T05:53:22.389Z,22.67
2016-06-23T05:54:22.375Z,22.79
2016-06-23T05:55:22.420Z,22.69
2016-06-23T05:56:22.358Z,22.69
2016-06-23T05:57:22.373Z,22.82
2016-06-23T05:58:22.384Z,22.84
2016-06-23T05:59:22.351Z,22.79
2016-06-23T06:00:22.409Z,22.71
2016-06-23T06:01:22.400Z,22.75
2016-06-23T06:02:22.369Z,22.75
2016-06-23T06:03:22.436Z,22.79
2016-06-23T06:04:22.426Z,22.84
2016-06-23T06:05:22.367Z,22.82
2016-06-23T06:06:22.398Z,22.81
2016-06-23T06:07:22.429Z,22.85
2016-06-23T06:08:22.425Z,22.75
2016-06-23T06:09:22.514Z,22.76
2016-06-23T06:10:22.433Z,22.84
2016-06-23T06:11:22.375Z,22.78
2016-06-23T06:12:22.429Z,22.81
2016-06-23T06:13:22.511Z,22.82
2016-06-23T06:14:22.387Z,22.81
2016-06-23T06:15:22.389Z,22.86
2016-06-23T06:16:22.418Z,22.81
2016-06-23T06:17:22.382Z,22.88
2016-06-23T06:18:22.455Z,22.85
2016-06-23T06:19:22.453Z,22.85
2016-06-23T06:20:22.385Z,22.84
2016-06-23T06:21:22.467Z,22.84
2016-06-23T06:22:22.394Z,22.88
2016-06-23T06:23:22.466Z,22.92
2016-06-23T06:24:22.434Z,22.86
2016-06-23T06:25:22.435Z,23.1
2016-06-23T06:26:22.470Z,23.09
2016-06-23T06:27:22.465Z,23.4
2016-06-23T06:28:22.452Z,23.59
2016-06-23T06:29:22.465Z,23.35
2016-06-23T06:30:22.521Z,23.44
2016-06-23T06:31:22.506Z,23.16
2016-06-23T06:32:22.514Z,23.35
2016-06-23T06:33:22.429Z,23.59
2016-06-23T06:34:22.413Z,23.7
2016-06-23T06:35:22.480Z,23.99
2016-06-23T06:36:22.457Z,23.97
2016-06-23T06:37:22.547Z,23.77
2016-06-23T06:38:22.453Z,23.72
2016-06-23T06:39:22.899Z,23.64
2016-06-23T06:40:22.460Z,23.99
2016-06-23T06:41:22.422Z,23.96
2016-06-23T06:42:22.461Z,23.99
2016-06-23T06:43:22.470Z,24.17
2016-06-23T06:44:22.461Z,24.3
2016-06-23T06:45:22.524Z,24.4
2016-06-23T06:46:22.439Z,24.63
2016-06-23T06:47:22.481Z,24.52
2016-06-23T06:48:22.469Z,24.56
2016-06-23T06:49:22.437Z,24.7
2016-06-23T06:50:22.501Z,24.71
2016-06-23T06:51:22.557Z,24.75
2016-06-23T06:52:22.517Z,25.27
2016-06-23T06:53:22.469Z,25.62
2016-06-23T06:54:22.534Z,25.44
2016-06-23T06:55:22.475Z,25.02
2016-06-23T06:56:22.661Z,24.29
2016-06-23T06:57:22.542Z,24.11
2016-06-23T06:58:22.576Z,24.22
2016-06-23T06:59:22.479Z,24.36
2016-06-23T07:00:22.537Z,24.75
2016-06-23T07:01:22.495Z,24.51
2016-06-23T07:02:22.570Z,25
2016-06-23T07:03:22.480Z,25.01
2016-06-23T07:04:22.533Z,24.97
2016-06-23T07:05:22.482Z,25.41
2016-06-23T07:06:22.547Z,25.42
2016-06-23T07:07:22.458Z,25.81
2016-06-23T07:08:22.479Z,26
2016-06-23T07:09:22.497Z,25.94
2016-06-23T07:10:22.538Z,25.84
2016-06-23T07:11:22.552Z,25.63
2016-06-23T07:12:22.489Z,25.38
2016-06-23T07:13:22.563Z,25.27
2016-06-23T07:14:22.558Z,25.24
2016-06-23T07:15:22.541Z,25.01
2016-06-23T07:16:22.532Z,25.12
2016-06-23T07:17:22.551Z,25.19
2016-06-23T07:18:22.539Z,25.44
2016-06-23T07:19:23.507Z,25.84
2016-06-23T07:20:22.520Z,25.84
2016-06-23T07:21:22.514Z,25.38
2016-06-23T07:22:22.490Z,25.34
2016-06-23T07:23:22.557Z,25.44
2016-06-23T07:24:22.647Z,25.51
2016-06-23T07:25:22.568Z,25.32
2016-06-23T07:26:22.538Z,25.33
2016-06-23T07:27:23.170Z,25.12
2016-06-23T07:28:22.766Z,25.09
2016-06-23T07:29:22.820Z,25.22
2016-06-23T07:30:22.562Z,25.23
2016-06-23T07:31:22.521Z,25.22
2016-06-23T07:32:22.556Z,25.66
2016-06-23T07:33:22.551Z,25.7
2016-06-23T07:34:22.614Z,25.91
2016-06-23T07:35:22.550Z,26.32
2016-06-23T07:36:22.546Z,26.3
2016-06-23T07:37:22.495Z,26.34
2016-06-23T07:38:22.547Z,26.15
2016-06-23T07:39:22.551Z,25.86
2016-06-23T07:40:22.626Z,25.74
2016-06-23T07:41:22.572Z,25.74
2016-06-23T07:42:22.516Z,25.82
2016-06-23T07:43:22.643Z,25.96
2016-06-23T07:44:22.544Z,26.47
2016-06-23T07:45:22.558Z,26.47
2016-06-23T07:46:22.686Z,26.37
2016-06-23T07:47:22.549Z,26.23
2016-06-23T07:48:22.571Z,26.3
2016-06-23T07:49:22.555Z,26.31
2016-06-23T07:50:22.548Z,26.23
2016-06-23T07:51:22.588Z,26.54
2016-06-23T07:52:22.546Z,26.42
2016-06-23T07:53:22.621Z,26.37
2016-06-23T07:54:22.658Z,26.42
2016-06-23T07:55:22.569Z,26.32
2016-06-23T07:56:22.613Z,26.31
2016-06-23T07:57:22.622Z,26.38
2016-06-23T07:58:22.643Z,26.6
2016-06-23T07:59:22.605Z,26.68
2016-06-23T08:00:22.562Z,26.75
2016-06-23T08:01:22.587Z,27.19
2016-06-23T08:02:22.591Z,27.38
2016-06-23T08:03:22.539Z,27.55
2016-06-23T08:04:22.572Z,27.15
2016-06-23T08:05:22.611Z,26.99
2016-06-23T08:06:22.630Z,27.01
2016-06-23T08:07:22.589Z,27.42
2016-06-23T08:08:22.628Z,27.8
2016-06-23T08:09:22.593Z,27.52
2016-06-23T08:10:22.652Z,27.31
2016-06-23T08:11:22.603Z,27.21
2016-06-23T08:12:22.630Z,26.9
2016-06-23T08:13:22.645Z,26.87
2016-06-23T08:14:23.363Z,26.74
2016-06-23T08:15:22.610Z,26.64
2016-06-23T08:16:22.653Z,26.86
2016-06-23T08:17:22.597Z,27.46
2016-06-23T08:18:22.615Z,27.26
2016-06-23T08:19:22.699Z,27.19
2016-06-23T08:20:22.594Z,27.41
2016-06-23T08:21:22.578Z,27.09
2016-06-23T08:22:23.759Z,26.89
2016-06-23T08:23:22.653Z,27.05
2016-06-23T08:24:22.615Z,27.64
2016-06-23T08:25:23.059Z,27.55
2016-06-23T08:26:22.662Z,27.69
2016-06-23T08:27:22.623Z,27.74
2016-06-23T08:28:22.611Z,28.08
2016-06-23T08:29:22.594Z,28.18
2016-06-23T08:30:22.643Z,28.18
2016-06-23T08:31:22.686Z,28.61
2016-06-23T08:32:22.687Z,28.26
2016-06-23T08:33:22.659Z,27.84
2016-06-23T08:34:22.597Z,27.83
2016-06-23T08:35:22.630Z,27.69
2016-06-23T08:36:22.591Z,27.65
2016-06-23T08:37:22.629Z,27.93
2016-06-23T08:38:22.632Z,28.17
2016-06-23T08:39:23.691Z,28.58
2016-06-23T08:40:22.595Z,28.72
2016-06-23T08:41:22.698Z,29.06
2016-06-23T08:42:22.628Z,29.7
2016-06-23T08:43:22.699Z,29.52
2016-06-23T08:44:22.708Z,29.45
2016-06-23T08:45:22.621Z,29.36
2016-06-23T08:46:22.674Z,29.29
2016-06-23T08:47:22.677Z,29.32
2016-06-23T08:48:22.614Z,28.6
2016-06-23T08:49:22.847Z,28.41
2016-06-23T08:50:22.704Z,28.42
2016-06-23T08:51:22.684Z,28.39
2016-06-23T08:52:22.706Z,28.14
2016-06-23T08:53:22.702Z,27.94
2016-06-23T08:54:22.936Z,28.36
2016-06-23T08:55:24.192Z,28.43
2016-06-23T08:56:23.742Z,28.54
2016-06-23T08:57:23.998Z,28.68
2016-06-23T08:58:22.873Z,28.51
2016-06-23T08:59:22.784Z,28.38
2016-06-23T09:00:22.705Z,28.35
2016-06-23T09:01:22.766Z,28.23
2016-06-23T09:02:22.679Z,28.35
2016-06-23T09:03:22.666Z,28.28
2016-06-23T09:04:22.676Z,28.46
2016-06-23T09:05:22.690Z,28.45
2016-06-23T09:06:22.635Z,28.49
2016-06-23T09:07:22.705Z,28.65
2016-06-23T09:08:22.703Z,28.49
2016-06-23T09:09:22.733Z,28.51
2016-06-23T09:10:22.689Z,28.53
2016-06-23T09:11:22.682Z,28.53
2016-06-23T09:12:22.766Z,28.41
2016-06-23T09:13:22.705Z,28.6
2016-06-23T09:14:22.722Z,28.48
2016-06-23T09:15:22.783Z,28.68
2016-06-23T09:16:22.719Z,28.97
2016-06-23T09:17:22.651Z,28.88
2016-06-23T09:18:22.733Z,29.1
2016-06-23T09:19:22.718Z,29.57
2016-06-23T09:20:22.779Z,30.22
2016-06-23T09:21:22.702Z,29.97
2016-06-23T09:22:22.699Z,29.4
2016-06-23T09:23:22.735Z,28.86
2016-06-23T09:24:22.689Z,28.92
2016-06-23T09:25:22.748Z,28.72
2016-06-23T09:26:22.702Z,28.76
2016-06-23T09:27:22.689Z,28.88
2016-06-23T09:28:22.756Z,29.45
2016-06-23T09:29:22.748Z,29.98
2016-06-23T09:30:22.751Z,29.54
2016-06-23T09:31:22.671Z,29.47
2016-06-23T09:32:22.737Z,29.1
2016-06-23T09:33:22.722Z,29.03
2016-06-23T09:34:22.763Z,28.8
2016-06-23T09:35:22.767Z,28.92
2016-06-23T09:36:22.722Z,28.7
2016-06-23T09:37:22.702Z,29.15
2016-06-23T09:38:22.705Z,29.3
2016-06-23T09:39:22.696Z,29.52
2016-06-23T09:40:22.726Z,29.69
2016-06-23T09:41:22.779Z,29.5
2016-06-23T09:42:22.763Z,29.33
2016-06-23T09:43:22.812Z,29.3
2016-06-23T09:44:22.717Z,29.48
2016-06-23T09:45:22.836Z,29.35
2016-06-23T09:46:23.566Z,29.43
2016-06-23T09:47:22.755Z,29.48
2016-06-23T09:48:22.787Z,29.7
2016-06-23T09:49:23.093Z,30.02
2016-06-23T09:50:22.746Z,30.34
2016-06-23T09:51:22.780Z,30.45
2016-06-23T09:52:22.796Z,30.16
2016-06-23T09:53:22.778Z,30.13
2016-06-23T09:54:22.757Z,29.98
2016-06-23T09:55:22.740Z,29.77
2016-06-23T09:56:22.963Z,30.04
2016-06-23T09:57:22.742Z,30.75
2016-06-23T09:58:22.770Z,30.45
2016-06-23T09:59:23.401Z,30.14
2016-06-23T10:00:22.796Z,30.49
2016-06-23T10:01:23.014Z,30.62
2016-06-23T10:02:22.899Z,30.21
2016-06-23T10:03:22.767Z,30.28
2016-06-23T10:04:22.782Z,30.75
2016-06-23T10:05:22.766Z,30.6
2016-06-23T10:06:22.890Z,30.54
2016-06-23T10:07:22.795Z,31.06
2016-06-23T10:08:22.832Z,31.31
2016-06-23T10:09:22.928Z,31.86
2016-06-23T10:10:22.806Z,31.67
2016-06-23T10:11:22.839Z,31.41
2016-06-23T10:12:22.889Z,31.7
2016-06-23T10:13:22.826Z,31.78
2016-06-23T10:14:22.759Z,31.75
2016-06-23T10:15:22.793Z,31.28
2016-06-23T10:16:22.821Z,31.18
2016-06-23T10:17:22.809Z,31.16
2016-06-23T10:18:22.789Z,30.66
2016-06-23T10:19:22.894Z,30.45
2016-06-23T10:20:22.843Z,30.93
2016-06-23T10:21:22.881Z,31.31
2016-06-23T10:22:22.842Z,31.08
2016-06-23T10:23:22.830Z,31.36
2016-06-23T10:24:22.798Z,31.08
2016-06-23T10:25:22.845Z,30.77
2016-06-23T10:26:22.823Z,31.81
2016-06-23T10:27:23.085Z,32.59
2016-06-23T10:28:23.127Z,31.81
2016-06-23T10:29:22.779Z,31.47
2016-06-23T10:30:22.854Z,31.49
2016-06-23T10:31:22.819Z,31
2016-06-23T10:32:22.822Z,31.28
2016-06-23T10:33:22.789Z,31.56
2016-06-23T10:34:23.011Z,31.45
2016-06-23T10:35:22.970Z,31.47
2016-06-23T10:36:23.021Z,31.12
2016-06-23T10:37:22.852Z,31.33
2016-06-23T10:38:22.821Z,31.44
2016-06-23T10:39:26.160Z,31.37
2016-06-23T10:40:24.175Z,31.41
2016-06-23T10:41:22.786Z,31.43
2016-06-23T10:42:22.845Z,31.38
2016-06-23T10:43:22.861Z,31.87
2016-06-23T10:44:22.891Z,31.81
2016-06-23T10:45:22.837Z,31.94
2016-06-23T10:46:22.868Z,31.93
2016-06-23T10:47:22.836Z,32.08
2016-06-23T10:48:22.968Z,31.78
2016-06-23T10:49:22.892Z,31.6
2016-06-23T10:50:22.843Z,31.33
2016-06-23T10:51:22.887Z,31.07
2016-06-23T10:52:22.866Z,31.21
2016-06-23T10:53:23.435Z,31.82
2016-06-23T10:54:22.852Z,31.98
2016-06-23T10:55:22.960Z,32.01
2016-06-23T10:56:22.863Z,31.65
2016-06-23T10:57:22.845Z,31.38
2016-06-23T10:58:22.902Z,31.25
2016-06-23T10:59:22.846Z,31.65
2016-06-23T11:00:22.841Z,31.93
2016-06-23T11:01:22.902Z,32.06
2016-06-23T11:02:22.896Z,32.13
2016-06-23T11:03:22.858Z,32.31
2016-06-23T11:04:22.862Z,32.28
2016-06-23T11:05:22.881Z,32.08
2016-06-23T11:06:23.476Z,32.47
2016-06-23T11:07:22.902Z,32
2016-06-23T11:08:22.892Z,31.74
2016-06-23T11:09:22.857Z,32.09
2016-06-23T11:10:22.891Z,32.9
2016-06-23T11:11:22.863Z,32.5
2016-06-23T11:12:22.931Z,32.19
2016-06-23T11:13:23.036Z,32.01
2016-06-23T11:14:22.866Z,31.93
2016-06-23T11:15:22.926Z,32.34
2016-06-23T11:16:22.912Z,32.89
2016-06-23T11:17:22.845Z,33.13
2016-06-23T11:18:22.869Z,32.86
2016-06-23T11:19:22.946Z,32.93
2016-06-23T11:20:22.924Z,33.39
2016-06-23T11:21:22.937Z,33.11
2016-06-23T11:26:40.837Z,34.29
2016-06-23T11:26:47.723Z,34.05
2016-06-23T11:27:47.788Z,33.61
2016-06-23T11:28:47.827Z,33.9
2016-06-23T11:29:47.768Z,34.36
2016-06-23T11:30:47.771Z,34.63
2016-06-23T11:31:47.819Z,34.11
2016-06-23T11:32:48.395Z,33.8
2016-06-23T11:33:47.809Z,33.43
2016-06-23T11:34:47.721Z,33.85
2016-06-23T11:35:47.827Z,34.36
2016-06-23T11:36:47.773Z,34.37
2016-06-23T11:37:47.770Z,33.73
2016-06-23T11:38:47.862Z,33.65
2016-06-23T11:39:47.733Z,33.63
2016-06-23T11:40:47.789Z,33.18
2016-06-23T11:41:47.959Z,33.09
2016-06-23T11:42:47.800Z,33.08
2016-06-23T11:43:47.842Z,32.93
2016-06-23T11:44:47.839Z,33.13
2016-06-23T11:45:47.737Z,33.53
2016-06-23T11:46:47.809Z,33.55
2016-06-23T11:47:47.824Z,33.29
2016-06-23T11:48:47.817Z,33.58
2016-06-23T11:49:47.751Z,33.59
2016-06-23T11:50:47.828Z,33.92
2016-06-23T11:51:47.950Z,32.84
2016-06-23T11:52:47.800Z,32.81
2016-06-23T11:53:47.790Z,32.49
2016-06-23T11:54:47.805Z,32.47
2016-06-23T11:55:47.822Z,32.38
2016-06-23T11:56:47.773Z,32.54
2016-06-23T11:57:47.833Z,32.39
2016-06-23T11:58:47.906Z,32.32
2016-06-23T11:59:47.828Z,32.69
2016-06-23T12:00:47.846Z,33.4
2016-06-23T12:01:47.846Z,32.71
2016-06-23T12:02:47.881Z,32.59
2016-06-23T12:03:47.853Z,32.42
2016-06-23T12:04:47.813Z,32.47
2016-06-23T12:05:47.833Z,32.62
2016-06-23T12:06:47.840Z,32.84
2016-06-23T12:07:47.760Z,33.02
2016-06-23T12:08:47.924Z,33.46
2016-06-23T12:09:47.915Z,32.91
2016-06-23T12:10:47.817Z,33.47
2016-06-23T12:11:47.923Z,33.97
2016-06-23T12:12:47.848Z,34.37
2016-06-23T12:20:18.545Z,34.05
2016-06-23T12:20:25.482Z,32.59
2016-06-23T12:21:25.594Z,32.43
2016-06-23T12:22:25.513Z,32.64
2016-06-23T12:23:25.502Z,32.83
2016-06-23T12:24:25.559Z,33.24
2016-06-23T12:25:25.600Z,32.93
2016-06-23T12:26:25.507Z,32.91
2016-06-23T12:27:25.495Z,32.68
2016-06-23T12:28:26.691Z,32.42
2016-06-23T12:29:26.006Z,32.23
2016-06-23T12:30:26.033Z,32.08
2016-06-23T12:31:26.322Z,31.82
2016-06-23T12:32:25.534Z,31.88
2016-06-23T12:33:25.579Z,32.06
2016-06-23T12:34:25.580Z,32.03
2016-06-23T12:35:25.521Z,32.06
2016-06-23T12:36:25.616Z,31.87
2016-06-23T12:37:25.517Z,31.8
2016-06-23T12:38:25.594Z,31.91
2016-06-23T12:39:25.597Z,32
2016-06-23T12:40:25.547Z,32.05
2016-06-23T12:41:25.606Z,31.93
2016-06-23T12:42:25.549Z,31.82
2016-06-23T12:43:25.543Z,31.88
2016-06-23T12:44:25.562Z,31.81
2016-06-23T12:45:25.529Z,31.93
2016-06-23T12:46:25.550Z,32.17
2016-06-23T12:47:25.519Z,32.69
2016-06-23T12:48:25.566Z,32.94
2016-06-23T12:49:25.545Z,33.26
2016-06-23T12:50:25.532Z,33.47
2016-06-23T12:51:25.578Z,33.39
2016-06-23T12:52:25.633Z,33.23
2016-06-23T12:53:25.626Z,33.18
2016-06-23T12:54:25.552Z,33.21
2016-06-23T12:55:25.550Z,33.26
2016-06-23T12:56:25.552Z,33.11
2016-06-23T12:57:25.586Z,32.86
2016-06-23T12:58:25.595Z,32.2
2016-06-23T12:59:25.635Z,32.43
2016-06-23T13:00:25.611Z,32.03
2016-06-23T13:01:25.576Z,32.05
2016-06-23T13:02:25.579Z,32
2016-06-23T13:03:25.567Z,32.42
2016-06-23T13:04:25.582Z,32.43
2016-06-23T13:05:25.545Z,32.32
2016-06-23T13:06:25.612Z,32.2
2016-06-23T13:07:25.614Z,31.62
2016-06-23T13:08:25.534Z,31.6
2016-06-23T13:09:25.592Z,31.65
2016-06-23T13:10:25.578Z,31.52
2016-06-23T13:11:25.576Z,31.49
2016-06-23T13:12:25.606Z,31.62
2016-06-23T13:13:25.552Z,31.95
2016-06-23T13:14:25.613Z,32.24
2016-06-23T13:15:25.634Z,32.31